Time;durP1;ratioP1;P1;durP2;ratioP2;P2;SDS_P1;SDS_P2;PMS_P1;PMS_P2;Temp;Humidity;BMP_temperature;BMP_pressure;BME280_temperature;BME280_humidity;BME280_pressure;Samples;Min_cycle;Max_cycle;Signal;HPM_P1;HPM_P2
2021/03/20 00:05:53;;;;;;;42.00;11.05;;;;;;;;;;4692629;28;22887;-58
2021/03/20 00:08:21;;;;;;;36.80;8.50;;;;;;;;;;4205332;34;20184;-58
2021/03/20 00:10:47;;;;;;;37.53;9.35;;;;;;;;;;4176871;34;20115;-56
2021/03/20 00:13:13;;;;;;;32.40;8.63;;;;;;;;;;4178352;34;20106;-57
2021/03/20 00:16:22;;;;;;;42.15;11.32;;;;;;;;;;4178641;34;20108;-58
2021/03/20 00:18:56;;;;;;;48.85;11.32;;;;;;;;;;4191827;34;20205;-57
2021/03/20 00:21:22;;;;;;;39.30;8.52;;;;;;;;;;4191429;34;20145;-58
2021/03/20 00:23:48;;;;;;;39.63;9.52;;;;;;;;;;4178761;34;20102;-57
2021/03/20 00:26:14;;;;;;;38.42;7.75;;;;;;;;;;4190977;34;20181;-57
2021/03/20 00:28:40;;;;;;;35.45;8.60;;;;;;;;;;4191495;34;20097;-57
2021/03/20 00:31:09;;;;;;;34.20;9.13;;;;;;;;;;4190536;34;20117;-57
2021/03/20 00:33:35;;;;;;;25.55;7.20;;;;;;;;;;4191607;34;20164;-57
2021/03/20 00:36:01;;;;;;;37.08;9.35;;;;;;;;;;4191594;34;20097;-56
2021/03/20 00:38:27;;;;;;;37.22;10.20;;;;;;;;;;4191392;34;20129;-56
2021/03/20 00:40:54;;;;;;;44.13;9.80;;;;;;;;;;4178581;34;20114;-57
2021/03/20 00:43:20;;;;;;;33.35;9.65;;;;;;;;;;4191406;34;20122;-57
2021/03/20 00:45:46;;;;;;;50.42;9.40;;;;;;;;;;4191174;34;20238;-56
2021/03/20 00:48:14;;;;;;;38.17;10.60;;;;;;;;;;4191260;34;20138;-56
2021/03/20 00:50:40;;;;;;;39.90;10.52;;;;;;;;;;4191255;34;20141;-58
2021/03/20 00:53:06;;;;;;;42.30;8.75;;;;;;;;;;4191253;34;20118;-57
2021/03/20 00:55:32;;;;;;;40.38;8.27;;;;;;;;;;4191112;34;20113;-56
2021/03/20 00:57:58;;;;;;;27.37;7.68;;;;;;;;;;4178645;34;20136;-57
2021/03/20 01:00:26;;;;;;;35.13;8.40;;;;;;;;;;4191169;34;20118;-57
2021/03/20 01:02:52;;;;;;;47.78;8.80;;;;;;;;;;4191260;34;20122;-57
2021/03/20 01:05:18;;;;;;;31.90;6.60;;;;;;;;;;4190705;34;20160;-57
2021/03/20 01:07:45;;;;;;;40.00;9.18;;;;;;;;;;4191127;34;20113;-57
2021/03/20 01:10:18;;;;;;;33.85;7.78;;;;;;;;;;4178235;34;20094;-57
2021/03/20 01:12:44;;;;;;;33.72;8.93;;;;;;;;;;4191176;34;20149;-57
2021/03/20 01:15:11;;;;;;;28.95;6.93;;;;;;;;;;4190401;34;20553;-58
2021/03/20 01:17:36;;;;;;;36.72;8.60;;;;;;;;;;4190835;34;20140;-57
2021/03/20 01:20:04;;;;;;;36.78;8.02;;;;;;;;;;4190948;34;20541;-58
2021/03/20 01:22:30;;;;;;;28.50;8.02;;;;;;;;;;4191030;34;20455;-57
2021/03/20 01:24:56;;;;;;;38.03;9.43;;;;;;;;;;4191014;34;20114;-57
2021/03/20 01:27:21;;;;;;;32.78;8.48;;;;;;;;;;4190830;34;20097;-57
2021/03/20 01:29:47;;;;;;;32.90;8.43;;;;;;;;;;4190945;34;20217;-57
2021/03/20 01:32:13;;;;;;;28.62;8.93;;;;;;;;;;4190650;34;20213;-58
2021/03/20 01:34:39;;;;;;;33.85;9.50;;;;;;;;;;4190908;34;20565;-58
2021/03/20 01:37:05;;;;;;;33.90;8.57;;;;;;;;;;4190749;34;20100;-56
2021/03/20 01:39:36;;;;;;;29.37;8.13;;;;;;;;;;4190854;34;20202;-58
2021/03/20 01:42:06;;;;;;;28.27;8.93;;;;;;;;;;4190651;34;20153;-57
2021/03/20 01:44:32;;;;;;;28.80;9.27;;;;;;;;;;4190790;34;20140;-58
2021/03/20 01:46:58;;;;;;;26.58;8.52;;;;;;;;;;4190600;34;20125;-57
2021/03/20 01:49:41;;;;;;;34.58;7.97;;;;;;;;;;4190831;34;20126;-57
2021/03/20 01:52:10;;;;;;;33.63;8.10;;;;;;;;;;4190613;34;20129;-57
2021/03/20 01:54:41;;;;;;;42.05;9.57;;;;;;;;;;4190883;34;20118;-57
2021/03/20 01:57:07;;;;;;;31.92;8.85;;;;;;;;;;4178034;34;20550;-56
2021/03/20 01:59:33;;;;;;;25.40;7.93;;;;;;;;;;4190628;34;20224;-57
2021/03/20 02:01:59;;;;;;;29.83;8.00;;;;;;;;;;4177468;34;20129;-57
2021/03/20 02:04:25;;;;;;;30.50;8.25;;;;;;;;;;4190737;34;20140;-56
2021/03/20 02:06:51;;;;;;;25.67;7.68;;;;;;;;;;4190500;34;20554;-56
2021/03/20 02:09:17;;;;;;;29.90;8.15;;;;;;;;;;4177741;34;20095;-56
2021/03/20 02:12:11;;;;;;;23.42;6.97;;;;;;;;;;4177827;34;20113;-55
2021/03/20 02:14:49;;;;;;;26.35;7.40;;;;;;;;;;4190469;34;20522;-57
2021/03/20 02:17:27;;;;;;;23.30;6.75;;;;;;;;;;4190260;34;20270;-57
2021/03/20 02:20:00;;;;;;;25.15;8.25;;;;;;;;;;4190428;34;20614;-56
2021/03/20 02:23:07;;;;;;;26.58;6.78;;;;;;;;;;4177668;34;20549;-56
2021/03/20 02:25:42;;;;;;;23.70;7.30;;;;;;;;;;4190245;34;20114;-56
2021/03/20 02:28:31;;;;;;;30.83;7.28;;;;;;;;;;4190349;34;20182;-56
2021/03/20 02:31:03;;;;;;;24.87;7.15;;;;;;;;;;4179434;34;20136;-58
2021/03/20 02:33:34;;;;;;;24.02;7.05;;;;;;;;;;4189762;34;20225;-56
2021/03/20 02:36:29;;;;;;;33.92;7.68;;;;;;;;;;4166553;34;20130;-57
2021/03/20 02:39:19;;;;;;;34.05;8.60;;;;;;;;;;4177447;34;20114;-56
2021/03/20 02:41:58;;;;;;;18.58;7.57;;;;;;;;;;4177225;34;20506;-56
2021/03/20 02:44:41;;;;;;;24.23;7.72;;;;;;;;;;4178213;34;20118;-56
2021/03/20 02:47:08;;;;;;;19.35;7.05;;;;;;;;;;4165972;34;20092;-56
2021/03/20 02:49:47;;;;;;;22.65;6.97;;;;;;;;;;4177512;34;20099;-56
2021/03/20 02:52:33;;;;;;;19.70;6.90;;;;;;;;;;4177466;34;20537;-57
2021/03/20 02:55:08;;;;;;;18.37;6.35;;;;;;;;;;4167987;34;20234;-58
2021/03/20 02:57:35;;;;;;;25.62;6.00;;;;;;;;;;4180085;34;20132;-57
2021/03/20 03:00:07;;;;;;;26.58;7.53;;;;;;;;;;4179240;34;20137;-57
2021/03/20 03:02:33;;;;;;;18.10;6.68;;;;;;;;;;4168346;34;20125;-58
2021/03/20 03:05:16;;;;;;;16.87;7.15;;;;;;;;;;4167914;34;20244;-58
2021/03/20 03:07:51;;;;;;;19.25;5.72;;;;;;;;;;4179351;34;20233;-58
2021/03/20 03:10:38;;;;;;;27.30;7.25;;;;;;;;;;4180293;34;20101;-57
2021/03/20 03:13:13;;;;;;;22.55;6.65;;;;;;;;;;4169146;34;20477;-57
2021/03/20 03:15:41;;;;;;;17.87;6.35;;;;;;;;;;4168896;34;20114;-57
2021/03/20 03:18:17;;;;;;;25.85;6.95;;;;;;;;;;4179180;34;20122;-57
2021/03/20 03:20:47;;;;;;;26.25;7.70;;;;;;;;;;4179430;34;20599;-57
2021/03/20 03:23:17;;;;;;;20.80;6.45;;;;;;;;;;4192013;34;20112;-57
2021/03/20 03:25:47;;;;;;;21.92;6.45;;;;;;;;;;4179022;34;20109;-57
2021/03/20 03:28:15;;;;;;;21.12;5.50;;;;;;;;;;4179756;34;20203;-57
2021/03/20 03:30:41;;;;;;;19.45;6.57;;;;;;;;;;4168088;34;20547;-58
2021/03/20 03:33:25;;;;;;;20.20;6.80;;;;;;;;;;4178938;34;20110;-57
2021/03/20 03:35:57;;;;;;;18.98;6.72;;;;;;;;;;4191775;34;20118;-58
2021/03/20 03:38:29;;;;;;;17.17;5.57;;;;;;;;;;4179250;34;20134;-59
2021/03/20 03:41:04;;;;;;;14.35;5.47;;;;;;;;;;4191781;34;20176;-58
2021/03/20 03:43:30;;;;;;;18.80;6.68;;;;;;;;;;4179153;34;20153;-58
2021/03/20 03:45:56;;;;;;;21.70;6.10;;;;;;;;;;4178880;34;20542;-59
2021/03/20 03:48:22;;;;;;;22.50;6.30;;;;;;;;;;4191945;34;20149;-58
2021/03/20 03:50:49;;;;;;;19.17;5.85;;;;;;;;;;4191824;34;20118;-59
2021/03/20 03:53:17;;;;;;;20.75;5.72;;;;;;;;;;4167921;34;20110;-58
2021/03/20 03:55:43;;;;;;;16.92;5.20;;;;;;;;;;4167786;34;20124;-59
2021/03/20 03:58:24;;;;;;;15.35;6.12;;;;;;;;;;4191993;34;20208;-58
2021/03/20 04:01:14;;;;;;;14.18;5.20;;;;;;;;;;4168259;34;20548;-58
2021/03/20 04:03:55;;;;;;;15.88;5.60;;;;;;;;;;4178937;34;20539;-58
2021/03/20 04:07:01;;;;;;;14.80;5.82;;;;;;;;;;4190244;34;20238;-56
2021/03/20 04:09:31;;;;;;;;;;;;;;;;;;4191559;34;20089;-57
2021/03/20 04:12:27;;;;;;;10.25;5.05;;;;;;;;;;4191600;34;20329;-57
2021/03/20 04:15:22;;;;;;;16.17;5.62;;;;;;;;;;4179076;34;20125;-60
2021/03/20 04:18:00;;;;;;;16.08;5.30;;;;;;;;;;4189331;34;20110;-58
2021/03/20 04:20:59;;;;;;;14.57;5.28;;;;;;;;;;4191352;34;20478;-58
2021/03/20 04:23:30;;;;;;;17.52;5.57;;;;;;;;;;4169508;34;20105;-58
2021/03/20 04:26:08;;;;;;;23.17;6.25;;;;;;;;;;4167205;34;20109;-58
2021/03/20 04:28:52;;;;;;;16.23;5.37;;;;;;;;;;4168544;34;20109;-58
2021/03/20 04:31:21;;;;;;;19.65;5.87;;;;;;;;;;4168112;34;20153;-59
2021/03/20 04:33:52;;;;;;;16.67;5.03;;;;;;;;;;4191520;34;20525;-58
2021/03/20 04:36:23;;;;;;;15.40;5.05;;;;;;;;;;4167281;34;20105;-59
2021/03/20 04:38:49;;;;;;;18.40;5.70;;;;;;;;;;4178663;34;20573;-59
2021/03/20 04:41:16;;;;;;;14.13;5.62;;;;;;;;;;4166660;34;20118;-59
2021/03/20 04:43:41;;;;;;;17.05;6.00;;;;;;;;;;4191393;34;20130;-60
2021/03/20 04:46:21;;;;;;;16.35;5.60;;;;;;;;;;4178463;34;20125;-59
2021/03/20 04:48:50;;;;;;;12.60;4.22;;;;;;;;;;4167809;34;20098;-59
2021/03/20 04:51:54;;;;;;;18.23;4.95;;;;;;;;;;4167406;34;20099;-58
2021/03/20 04:54:20;;;;;;;11.73;5.37;;;;;;;;;;4191323;34;20098;-57
2021/03/20 04:57:19;;;;;;;12.23;5.32;;;;;;;;;;4191177;34;20106;-57
2021/03/20 05:00:13;;;;;;;11.98;5.60;;;;;;;;;;4178924;34;20137;-59
2021/03/20 05:02:44;;;;;;;11.75;4.50;;;;;;;;;;4180010;34;20117;-59
2021/03/20 05:05:23;;;;;;;20.20;5.32;;;;;;;;;;4178385;34;20106;-59
2021/03/20 05:07:51;;;;;;;17.52;5.80;;;;;;;;;;4178258;34;20116;-59
2021/03/20 05:10:27;;;;;;;14.82;5.20;;;;;;;;;;4166938;34;20152;-60
2021/03/20 05:12:53;;;;;;;;;;;;;;;;;;4178815;34;20142;-59
2021/03/20 05:15:28;;;;;;;11.43;4.78;;;;;;;;;;4189613;34;19972;-58
2021/03/20 05:17:54;;;;;;;16.65;5.62;;;;;;;;;;4177834;34;20137;-58
2021/03/20 05:20:20;;;;;;;18.65;6.32;;;;;;;;;;4191105;34;20545;-58
2021/03/20 05:22:46;;;;;;;22.87;5.28;;;;;;;;;;4189833;34;20225;-57
2021/03/20 05:25:18;;;;;;;15.13;5.57;;;;;;;;;;4178498;34;20149;-58
2021/03/20 05:27:46;;;;;;;12.55;5.25;;;;;;;;;;4191091;34;20193;-60
2021/03/20 05:30:14;;;;;;;15.98;5.47;;;;;;;;;;4190989;34;20233;-57
2021/03/20 05:32:40;;;;;;;15.52;5.75;;;;;;;;;;4190863;34;20226;-59
2021/03/20 05:35:08;;;;;;;15.82;5.70;;;;;;;;;;4190405;34;20463;-61
2021/03/20 05:37:41;;;;;;;12.32;5.40;;;;;;;;;;4191075;34;20498;-63
2021/03/20 05:40:15;;;;;;;16.83;6.28;;;;;;;;;;4190536;34;20210;-63
2021/03/20 05:43:19;;;;;;;16.05;5.60;;;;;;;;;;4167139;34;20117;-64
2021/03/20 05:45:58;;;;;;;13.27;5.40;;;;;;;;;;4190624;34;20179;-61
2021/03/20 05:48:34;;;;;;;18.15;5.25;;;;;;;;;;4178517;34;20133;-58
2021/03/20 05:51:10;;;;;;;12.13;5.50;;;;;;;;;;4177761;34;20597;-60
2021/03/20 05:53:57;;;;;;;11.98;5.25;;;;;;;;;;4190699;34;20105;-60
2021/03/20 05:56:48;;;;;;;21.33;5.40;;;;;;;;;;4177851;34;20256;-60
2021/03/20 05:59:23;;;;;;;10.95;4.35;;;;;;;;;;4179326;34;20094;-60
2021/03/20 06:02:00;;;;;;;16.02;5.22;;;;;;;;;;4167009;34;20121;-58
2021/03/20 06:04:44;;;;;;;14.32;5.55;;;;;;;;;;4178427;34;20182;-58
2021/03/20 06:07:52;;;;;;;14.68;5.20;;;;;;;;;;4177476;34;20597;-59
2021/03/20 06:10:53;;;;;;;16.65;5.43;;;;;;;;;;4164305;34;20118;-59
2021/03/20 06:13:45;;;;;;;16.83;5.62;;;;;;;;;;4164426;34;20828;-59
2021/03/20 06:16:14;;;;;;;16.52;5.00;;;;;;;;;;4190301;34;20538;-59
2021/03/20 06:18:50;;;;;;;17.60;5.45;;;;;;;;;;4190396;34;20146;-59
2021/03/20 06:21:46;;;;;;;14.23;5.75;;;;;;;;;;4177377;34;20137;-60
2021/03/20 06:24:21;;;;;;;12.18;4.78;;;;;;;;;;4177874;34;20505;-59
2021/03/20 06:26:47;;;;;;;14.55;4.72;;;;;;;;;;4190171;34;20603;-61
2021/03/20 06:29:19;;;;;;;10.30;4.72;;;;;;;;;;4178424;34;20142;-58
2021/03/20 06:31:47;;;;;;;17.77;5.10;;;;;;;;;;4179614;34;20529;-59
2021/03/20 06:34:22;;;;;;;13.27;5.43;;;;;;;;;;4168596;34;20117;-59
2021/03/20 06:36:55;;;;;;;10.77;5.10;;;;;;;;;;4192078;34;20090;-58
2021/03/20 06:39:37;;;;;;;11.50;4.50;;;;;;;;;;4179869;34;20091;-60
2021/03/20 06:42:06;;;;;;;11.70;4.85;;;;;;;;;;4192223;34;20525;-61
2021/03/20 06:44:40;;;;;;;12.05;4.90;;;;;;;;;;4192385;34;20619;-60
2021/03/20 06:47:27;;;;;;;11.07;4.90;;;;;;;;;;4179099;34;20119;-60
2021/03/20 06:50:20;;;;;;;16.58;5.45;;;;;;;;;;4179214;34;20130;-59
2021/03/20 06:52:48;;;;;;;10.52;5.25;;;;;;;;;;4180034;34;20148;-59
2021/03/20 06:55:29;;;;;;;12.43;4.45;;;;;;;;;;4179665;34;20199;-61
2021/03/20 06:57:55;;;;;;;13.32;5.15;;;;;;;;;;4192172;34;20564;-60
2021/03/20 07:00:30;;;;;;;13.57;5.07;;;;;;;;;;4179695;34;20141;-61
2021/03/20 07:03:18;;;;;;;13.80;5.05;;;;;;;;;;4179638;34;20105;-66
2021/03/20 07:05:56;;;;;;;9.80;4.95;;;;;;;;;;4191745;34;20129;-67
2021/03/20 07:08:34;;;;;;;13.23;5.93;;;;;;;;;;4192068;34;20530;-62
2021/03/20 07:11:00;;;;;;;11.05;4.97;;;;;;;;;;4191968;34;20145;-62
2021/03/20 07:13:28;;;;;;;10.55;5.28;;;;;;;;;;4192247;34;20193;-66
2021/03/20 07:16:14;;;;;;;15.27;6.25;;;;;;;;;;4179180;34;20149;-68
2021/03/20 07:18:45;;;;;;;10.32;4.70;;;;;;;;;;4192311;34;20206;-67
2021/03/20 07:21:25;;;;;;;9.35;4.72;;;;;;;;;;4192078;34;20126;-65
2021/03/20 07:23:52;;;;;;;13.85;4.82;;;;;;;;;;4192056;34;20154;-63
2021/03/20 07:26:18;;;;;;;13.80;5.45;;;;;;;;;;4167852;34;20101;-61
2021/03/20 07:28:49;;;;;;;12.68;4.82;;;;;;;;;;4179228;34;20197;-61
2021/03/20 07:31:15;;;;;;;8.60;4.53;;;;;;;;;;4179134;34;20760;-61
2021/03/20 07:33:42;;;;;;;10.70;5.00;;;;;;;;;;4179041;34;20103;-62
2021/03/20 07:36:35;;;;;;;11.07;5.35;;;;;;;;;;4191747;34;20097;-65
2021/03/20 07:39:21;;;;;;;12.43;4.57;;;;;;;;;;4191924;34;20116;-63
2021/03/20 07:41:53;;;;;;;10.50;5.03;;;;;;;;;;4191748;34;20113;-64
2021/03/20 07:44:19;;;;;;;11.20;5.10;;;;;;;;;;4192216;34;20122;-63
2021/03/20 07:46:45;;;;;;;15.10;4.95;;;;;;;;;;4191548;34;20136;-62
2021/03/20 07:49:29;;;;;;;12.20;4.47;;;;;;;;;;4167957;34;20205;-61
2021/03/20 07:52:03;;;;;;;11.88;4.87;;;;;;;;;;4179887;34;20214;-63
2021/03/20 07:54:38;;;;;;;12.25;4.85;;;;;;;;;;4179066;34;20130;-62
2021/03/20 07:57:07;;;;;;;10.73;4.50;;;;;;;;;;4179156;34;20098;-60
2021/03/20 07:59:33;;;;;;;8.10;4.78;;;;;;;;;;4191744;34;20110;-60
2021/03/20 08:02:01;;;;;;;13.93;5.15;;;;;;;;;;4178751;34;20540;-59
2021/03/20 08:04:53;;;;;;;10.27;4.62;;;;;;;;;;4167663;34;20194;-58
2021/03/20 08:07:47;;;;;;;11.12;4.05;;;;;;;;;;4191398;34;20109;-57
2021/03/20 08:10:27;;;;;;;17.98;5.15;;;;;;;;;;4191563;34;20579;-57
2021/03/20 08:13:14;;;;;;;11.23;5.30;;;;;;;;;;4191729;34;20116;-60
2021/03/20 08:15:44;;;;;;;14.55;5.30;;;;;;;;;;4178946;34;20461;-59
2021/03/20 08:18:23;;;;;;;9.88;3.90;;;;;;;;;;4178514;34;20110;-62
2021/03/20 08:21:07;;;;;;;10.25;4.72;;;;;;;;;;4191511;34;20105;-61
2021/03/20 08:24:10;;;;;;;14.20;4.62;;;;;;;;;;4179023;34;20138;-59
2021/03/20 08:26:58;;;;;;;13.02;4.75;;;;;;;;;;4191306;34;20098;-60
2021/03/20 08:29:50;;;;;;;16.98;4.97;;;;;;;;;;4178883;34;20434;-65
2021/03/20 08:32:38;;;;;;;14.57;5.30;;;;;;;;;;4178542;34;20098;-61
2021/03/20 08:35:10;;;;;;;11.82;4.95;;;;;;;;;;4190301;34;20105;-61
2021/03/20 08:37:46;;;;;;;13.57;4.82;;;;;;;;;;4178848;34;20191;-61
2021/03/20 08:40:31;;;;;;;;;;;;;;;;;;4164863;34;20202;-61
2021/03/20 08:43:18;;;;;;;11.50;4.47;;;;;;;;;;4183278;34;20383;-59
2021/03/20 08:46:04;;;;;;;9.60;4.57;;;;;;;;;;4196600;34;20113;-60
2021/03/20 08:48:34;;;;;;;;;;;;;;;;;;4176633;34;20141;-64
2021/03/20 08:51:14;;;;;;;21.35;5.68;;;;;;;;;;4200626;34;19989;-60
2021/03/20 08:53:43;;;;;;;15.63;4.75;;;;;;;;;;4191118;34;20208;-60
2021/03/20 08:56:13;;;;;;;16.48;4.68;;;;;;;;;;4191187;34;20518;-60
2021/03/20 08:58:55;;;;;;;15.52;5.20;;;;;;;;;;4178489;34;20136;-65
2021/03/20 09:01:36;;;;;;;19.10;4.87;;;;;;;;;;4178414;34;20122;-61
2021/03/20 09:04:07;;;;;;;11.48;5.00;;;;;;;;;;4191216;34;20105;-62
2021/03/20 09:06:51;;;;;;;14.63;5.05;;;;;;;;;;4166617;34;20126;-60
2021/03/20 09:09:31;;;;;;;11.48;4.30;;;;;;;;;;4167284;34;20090;-61
2021/03/20 09:11:59;;;;;;;12.18;5.05;;;;;;;;;;4178226;34;20106;-58
2021/03/20 09:14:30;;;;;;;16.48;4.90;;;;;;;;;;4190825;34;20101;-59
2021/03/20 09:17:01;;;;;;;13.88;4.60;;;;;;;;;;4167383;34;20141;-58
2021/03/20 09:19:29;;;;;;;15.45;4.62;;;;;;;;;;4166676;34;20133;-63
2021/03/20 09:21:58;;;;;;;15.20;4.70;;;;;;;;;;4166792;34;20106;-59
2021/03/20 09:24:25;;;;;;;14.00;4.72;;;;;;;;;;4178167;34;20141;-58
2021/03/20 09:26:53;;;;;;;17.95;5.57;;;;;;;;;;4167069;34;20118;-57
2021/03/20 09:29:26;;;;;;;8.88;4.70;;;;;;;;;;4177871;34;20474;-58
2021/03/20 09:32:00;;;;;;;11.07;4.93;;;;;;;;;;4190871;34;20513;-58
2021/03/20 09:34:35;;;;;;;12.93;3.97;;;;;;;;;;4178083;34;20102;-58
2021/03/20 09:37:03;;;;;;;8.83;4.20;;;;;;;;;;4190712;34;20454;-57
2021/03/20 09:39:45;;;;;;;17.87;4.70;;;;;;;;;;4177821;34;20185;-58
2021/03/20 09:42:34;;;;;;;13.48;4.87;;;;;;;;;;4190524;34;20113;-58
2021/03/20 09:45:06;;;;;;;11.80;4.65;;;;;;;;;;4171876;34;20126;-59
2021/03/20 09:47:52;;;;;;;14.15;4.78;;;;;;;;;;4175977;34;20547;-59
2021/03/20 09:50:18;;;;;;;14.95;4.70;;;;;;;;;;4189567;34;20126;-58
2021/03/20 09:52:46;;;;;;;13.90;4.15;;;;;;;;;;4189751;34;20189;-57
2021/03/20 09:55:30;;;;;;;11.98;5.43;;;;;;;;;;4177282;34;20612;-57
2021/03/20 09:58:00;;;;;;;11.52;4.40;;;;;;;;;;4190236;34;20198;-58
2021/03/20 10:00:44;;;;;;;14.30;4.72;;;;;;;;;;4190291;34;20193;-58
2021/03/20 10:03:10;;;;;;;9.98;3.97;;;;;;;;;;4191354;34;20102;-59
2021/03/20 10:05:36;;;;;;;15.93;5.55;;;;;;;;;;4192420;34;20122;-59
2021/03/20 10:08:19;;;;;;;10.38;4.85;;;;;;;;;;4179794;34;20521;-58
2021/03/20 10:10:48;;;;;;;15.32;5.30;;;;;;;;;;4192587;34;20503;-59
2021/03/20 10:13:18;;;;;;;10.52;4.80;;;;;;;;;;4192312;34;20133;-60
2021/03/20 10:16:00;;;;;;;15.75;5.15;;;;;;;;;;4192595;34;20138;-60
2021/03/20 10:18:34;;;;;;;7.55;4.12;;;;;;;;;;4192669;34;20106;-58
2021/03/20 10:21:04;;;;;;;10.10;4.60;;;;;;;;;;4179956;34;20455;-58
2021/03/20 10:23:56;;;;;;;15.00;5.32;;;;;;;;;;4180309;34;20106;-59
2021/03/20 10:26:41;;;;;;;10.18;4.60;;;;;;;;;;4192495;34;20110;-59
2021/03/20 10:29:16;;;;;;;9.32;4.93;;;;;;;;;;4179747;34;20121;-59
2021/03/20 10:31:49;;;;;;;9.45;4.90;;;;;;;;;;4192407;34;20117;-58
2021/03/20 10:34:18;;;;;;;14.27;4.40;;;;;;;;;;4192330;34;20126;-58
2021/03/20 10:36:48;;;;;;;10.93;4.12;;;;;;;;;;4192684;34;20134;-57
2021/03/20 10:39:22;;;;;;;9.77;5.43;;;;;;;;;;4180062;34;20105;-58
2021/03/20 10:41:49;;;;;;;11.12;4.50;;;;;;;;;;4192447;34;20090;-58
2021/03/20 10:44:19;;;;;;;14.50;5.43;;;;;;;;;;4179293;34;20093;-58
2021/03/20 10:46:45;;;;;;;8.25;3.58;;;;;;;;;;4179465;34;20113;-58
2021/03/20 10:49:22;;;;;;;8.60;4.70;;;;;;;;;;4179471;34;20114;-59
2021/03/20 10:51:50;;;;;;;9.95;3.97;;;;;;;;;;4179860;34;20129;-59
2021/03/20 10:54:36;;;;;;;10.18;4.22;;;;;;;;;;4168299;34;20114;-59
2021/03/20 10:57:08;;;;;;;7.97;4.12;;;;;;;;;;4179736;34;20110;-58
2021/03/20 10:59:37;;;;;;;12.40;4.40;;;;;;;;;;4167829;34;20094;-58
2021/03/20 11:02:22;;;;;;;6.93;4.07;;;;;;;;;;4192366;34;20134;-58
2021/03/20 11:04:48;;;;;;;6.62;4.25;;;;;;;;;;4192203;34;20164;-57
2021/03/20 11:07:16;;;;;;;8.57;4.20;;;;;;;;;;4179366;34;20459;-58
2021/03/20 11:09:42;;;;;;;10.27;4.35;;;;;;;;;;4192002;34;20122;-56
2021/03/20 11:12:26;;;;;;;10.43;4.45;;;;;;;;;;4179480;34;20118;-55
2021/03/20 11:14:55;;;;;;;8.05;4.30;;;;;;;;;;4178489;34;20145;-58
2021/03/20 11:17:22;;;;;;;7.90;4.10;;;;;;;;;;4179492;34;20159;-54
2021/03/20 11:19:50;;;;;;;7.50;4.15;;;;;;;;;;4168321;34;20122;-58
2021/03/20 11:22:39;;;;;;;8.55;4.10;;;;;;;;;;4178925;34;20196;-57
2021/03/20 11:25:10;;;;;;;10.07;4.40;;;;;;;;;;4184706;34;20122;-56
2021/03/20 11:27:40;;;;;;;9.45;4.65;;;;;;;;;;4191891;34;20114;-57
2021/03/20 11:30:15;;;;;;;6.70;4.15;;;;;;;;;;4191823;34;20098;-57
2021/03/20 11:32:42;;;;;;;6.70;3.97;;;;;;;;;;4179607;34;20102;-54
2021/03/20 11:35:39;;;;;;;10.25;4.22;;;;;;;;;;4179195;34;20094;-55
2021/03/20 11:38:05;;;;;;;10.32;4.32;;;;;;;;;;4191865;34;20126;-58
2021/03/20 11:40:34;;;;;;;9.80;4.37;;;;;;;;;;4179038;34;20602;-58
2021/03/20 11:43:07;;;;;;;9.90;4.47;;;;;;;;;;4191744;34;20486;-59
2021/03/20 11:45:37;;;;;;;10.15;4.37;;;;;;;;;;4191705;34;20110;-56
2021/03/20 11:48:23;;;;;;;12.98;4.55;;;;;;;;;;4179242;34;20129;-59
2021/03/20 11:50:53;;;;;;;11.48;3.92;;;;;;;;;;4191848;34;20110;-59
2021/03/20 11:53:25;;;;;;;14.32;5.03;;;;;;;;;;4167870;34;20099;-58
2021/03/20 11:55:52;;;;;;;9.10;3.92;;;;;;;;;;4179169;34;20606;-58
2021/03/20 11:58:32;;;;;;;9.07;3.78;;;;;;;;;;4167616;34;20114;-59
2021/03/20 12:00:58;;;;;;;12.95;4.37;;;;;;;;;;4178909;34;20128;-59
2021/03/20 12:03:38;;;;;;;14.10;4.85;;;;;;;;;;4179126;34;20109;-59
2021/03/20 12:06:16;;;;;;;15.13;4.68;;;;;;;;;;4191315;34;20572;-57
2021/03/20 12:09:09;;;;;;;10.57;4.60;;;;;;;;;;4191946;34;20100;-57
2021/03/20 12:11:45;;;;;;;11.55;5.32;;;;;;;;;;4182341;34;20542;-58
2021/03/20 12:14:31;;;;;;;15.25;5.62;;;;;;;;;;4191391;34;20109;-58
2021/03/20 12:17:09;;;;;;;13.88;5.70;;;;;;;;;;4191578;34;20171;-58
2021/03/20 12:20:25;;;;;;;12.52;4.95;;;;;;;;;;4191484;34;20094;-57
2021/03/20 12:22:52;;;;;;;13.62;5.07;;;;;;;;;;4167130;34;20094;-58
2021/03/20 12:25:36;;;;;;;17.98;5.03;;;;;;;;;;4179074;34;20157;-59
2021/03/20 12:28:25;;;;;;;13.68;5.97;;;;;;;;;;4167399;34;20095;-58
2021/03/20 12:31:12;;;;;;;7.62;4.65;;;;;;;;;;4191312;34;20137;-56
2021/03/20 12:34:06;;;;;;;16.98;5.40;;;;;;;;;;4191359;34;20090;-57
2021/03/20 12:36:35;;;;;;;9.40;4.53;;;;;;;;;;4191360;34;20227;-56
2021/03/20 12:39:01;;;;;;;13.02;5.05;;;;;;;;;;4191264;34;20110;-57
2021/03/20 12:41:29;;;;;;;13.52;6.45;;;;;;;;;;4191288;34;20538;-56
2021/03/20 12:44:06;;;;;;;13.95;5.05;;;;;;;;;;4191282;34;20106;-58
2021/03/20 12:46:32;;;;;;;14.55;4.80;;;;;;;;;;4191502;34;20205;-55
2021/03/20 12:48:58;;;;;;;12.98;4.55;;;;;;;;;;4191301;34;20624;-57
2021/03/20 12:51:24;;;;;;;11.57;4.60;;;;;;;;;;4191376;34;20137;-55
2021/03/20 12:53:50;;;;;;;13.60;5.28;;;;;;;;;;4167281;34;20105;-57
2021/03/20 12:56:16;;;;;;;14.00;4.97;;;;;;;;;;4191237;34;20471;-54
2021/03/20 12:58:42;;;;;;;13.73;5.68;;;;;;;;;;4191106;34;20209;-54
2021/03/20 13:01:08;;;;;;;10.65;3.90;;;;;;;;;;4191288;34;20125;-57
2021/03/20 13:03:34;;;;;;;9.50;4.20;;;;;;;;;;4191159;34;20110;-59
2021/03/20 13:06:00;;;;;;;12.35;4.18;;;;;;;;;;4190789;34;20130;-57
2021/03/20 13:08:26;;;;;;;14.73;4.43;;;;;;;;;;4180589;34;20550;-58
2021/03/20 13:10:52;;;;;;;12.68;3.78;;;;;;;;;;4191117;34;20209;-60
2021/03/20 13:13:18;;;;;;;16.37;3.95;;;;;;;;;;4191611;34;20450;-59
2021/03/20 13:15:44;;;;;;;9.63;3.80;;;;;;;;;;4191973;34;20258;-60
2021/03/20 13:18:10;;;;;;;9.10;3.78;;;;;;;;;;4191384;34;20122;-60
2021/03/20 13:20:37;;;;;;;11.60;4.45;;;;;;;;;;4191026;34;20216;-61
2021/03/20 13:23:03;;;;;;;9.25;3.95;;;;;;;;;;4190901;34;20136;-60
2021/03/20 13:25:31;;;;;;;12.88;3.42;;;;;;;;;;4191109;34;20118;-61
2021/03/20 13:27:57;;;;;;;9.10;3.75;;;;;;;;;;4190968;34;20118;-60
2021/03/20 13:30:28;;;;;;;16.65;3.72;;;;;;;;;;4190787;34;20136;-60
2021/03/20 13:32:54;;;;;;;20.20;4.18;;;;;;;;;;4191040;34;20102;-57
2021/03/20 13:35:22;;;;;;;11.00;3.28;;;;;;;;;;4178096;34;20109;-55
2021/03/20 13:37:47;;;;;;;13.23;3.85;;;;;;;;;;4190710;34;20482;-60
2021/03/20 13:40:14;;;;;;;13.05;4.35;;;;;;;;;;4177362;34;20140;-59
2021/03/20 13:42:40;;;;;;;10.00;3.72;;;;;;;;;;4190193;34;20117;-59
2021/03/20 13:45:08;;;;;;;9.85;4.62;;;;;;;;;;4190242;34;20114;-59
2021/03/20 13:47:34;;;;;;;9.85;4.30;;;;;;;;;;4165852;34;20110;-60
2021/03/20 13:50:00;;;;;;;12.63;4.22;;;;;;;;;;4190683;34;20220;-59
2021/03/20 13:52:26;;;;;;;6.68;4.03;;;;;;;;;;4190754;34;20118;-59
2021/03/20 13:54:52;;;;;;;9.57;4.87;;;;;;;;;;4190735;34;20546;-59
2021/03/20 13:57:18;;;;;;;10.95;4.85;;;;;;;;;;4190669;34;20106;-59
2021/03/20 13:59:44;;;;;;;8.15;4.05;;;;;;;;;;4190635;34;20140;-59
2021/03/20 14:02:14;;;;;;;13.48;5.30;;;;;;;;;;4190673;34;20196;-59
2021/03/20 14:04:40;;;;;;;13.50;4.85;;;;;;;;;;4190594;34;20130;-59
2021/03/20 14:07:10;;;;;;;11.82;4.82;;;;;;;;;;4190316;34;20447;-59
2021/03/20 14:09:36;;;;;;;9.10;4.00;;;;;;;;;;4190819;34;20229;-59
2021/03/20 14:12:02;;;;;;;11.23;5.93;;;;;;;;;;4190557;34;20214;-58
2021/03/20 14:14:28;;;;;;;14.13;5.62;;;;;;;;;;4190664;34;20130;-58
2021/03/20 14:16:54;;;;;;;10.93;6.30;;;;;;;;;;4190526;34;20130;-58
2021/03/20 14:19:20;;;;;;;10.48;5.03;;;;;;;;;;4190729;34;20114;-57
2021/03/20 14:21:46;;;;;;;9.93;4.55;;;;;;;;;;4177797;34;20202;-58
2021/03/20 14:24:12;;;;;;;11.73;4.10;;;;;;;;;;4177555;34;20106;-58
2021/03/20 14:26:38;;;;;;;6.80;4.25;;;;;;;;;;4190256;34;20115;-58
2021/03/20 14:29:04;;;;;;;7.87;4.32;;;;;;;;;;4177439;34;20101;-58
2021/03/20 14:31:30;;;;;;;10.60;4.35;;;;;;;;;;4190286;34;20186;-58
2021/03/20 14:33:56;;;;;;;10.77;5.25;;;;;;;;;;4190252;34;20530;-58
2021/03/20 14:36:21;;;;;;;8.43;4.85;;;;;;;;;;4190245;34;20139;-58
2021/03/20 14:38:47;;;;;;;11.32;4.03;;;;;;;;;;4190539;34;20234;-59
2021/03/20 14:41:13;;;;;;;10.25;5.07;;;;;;;;;;4189789;34;20554;-57
2021/03/20 14:43:39;;;;;;;11.02;4.85;;;;;;;;;;4177258;34;20149;-59
2021/03/20 14:46:05;;;;;;;11.77;5.40;;;;;;;;;;4177150;34;20102;-60
2021/03/20 14:48:32;;;;;;;10.05;5.45;;;;;;;;;;4190104;34;20102;-59
2021/03/20 14:50:58;;;;;;;13.90;5.32;;;;;;;;;;4178394;34;20117;-60
2021/03/20 14:53:24;;;;;;;9.10;5.20;;;;;;;;;;4192583;34;20106;-60
2021/03/20 14:55:50;;;;;;;8.13;4.68;;;;;;;;;;4192175;34;20126;-62
2021/03/20 14:58:16;;;;;;;11.52;5.90;;;;;;;;;;4191975;34;20114;-60
2021/03/20 15:00:48;;;;;;;10.48;5.53;;;;;;;;;;4192119;34;20110;-60
2021/03/20 15:03:14;;;;;;;11.75;4.97;;;;;;;;;;4192077;34;20120;-62
2021/03/20 15:05:41;;;;;;;9.32;4.87;;;;;;;;;;4191810;34;20496;-61
2021/03/20 15:08:07;;;;;;;14.30;5.07;;;;;;;;;;4192079;34;20129;-62
2021/03/20 15:10:36;;;;;;;8.68;5.87;;;;;;;;;;4192111;34;20118;-62
2021/03/20 15:13:01;;;;;;;12.18;5.00;;;;;;;;;;4192138;34;20531;-63
2021/03/20 15:15:29;;;;;;;8.55;4.25;;;;;;;;;;4192121;34;20102;-60